sensor_id;sensor_type;location;lat;lon;timestamp;P1;durP1;ratioP1;P2;durP2;ratioP2
18610;SDS011;9435;52.122;5.502;2023-02-02T00:01:58;23.38;;;3.80;;
18610;SDS011;9435;52.122;5.502;2023-02-02T00:04:27;30.10;;;4.65;;
18610;SDS011;9435;52.122;5.502;2023-02-02T00:06:57;26.70;;;3.97;;
18610;SDS011;9435;52.122;5.502;2023-02-02T00:09:26;30.83;;;4.40;;
18610;SDS011;9435;52.122;5.502;2023-02-02T00:11:55;25.85;;;3.63;;
18610;SDS011;9435;52.122;5.502;2023-02-02T00:14:23;24.70;;;3.90;;
18610;SDS011;9435;52.122;5.502;2023-02-02T00:16:51;29.27;;;3.85;;
18610;SDS011;9435;52.122;5.502;2023-02-02T00:19:19;30.48;;;3.88;;
18610;SDS011;9435;52.122;5.502;2023-02-02T00:21:50;25.92;;;4.30;;
18610;SDS011;9435;52.122;5.502;2023-02-02T00:24:19;27.38;;;3.78;;
18610;SDS011;9435;52.122;5.502;2023-02-02T00:26:47;27.63;;;4.22;;
18610;SDS011;9435;52.122;5.502;2023-02-02T00:29:16;27.13;;;3.58;;
18610;SDS011;9435;52.122;5.502;2023-02-02T00:31:44;28.45;;;3.72;;
18610;SDS011;9435;52.122;5.502;2023-02-02T00:34:11;21.58;;;3.60;;
18610;SDS011;9435;52.122;5.502;2023-02-02T00:36:40;23.45;;;4.03;;
18610;SDS011;9435;52.122;5.502;2023-02-02T00:39:08;27.25;;;3.88;;
18610;SDS011;9435;52.122;5.502;2023-02-02T00:41:37;28.70;;;3.70;;
18610;SDS011;9435;52.122;5.502;2023-02-02T00:44:04;20.35;;;3.58;;
18610;SDS011;9435;52.122;5.502;2023-02-02T00:46:48;30.15;;;4.10;;
18610;SDS011;9435;52.122;5.502;2023-02-02T00:49:15;31.50;;;4.43;;
18610;SDS011;9435;52.122;5.502;2023-02-02T00:51:42;23.00;;;3.63;;
18610;SDS011;9435;52.122;5.502;2023-02-02T00:54:09;25.98;;;3.78;;
18610;SDS011;9435;52.122;5.502;2023-02-02T00:56:39;28.27;;;4.05;;
18610;SDS011;9435;52.122;5.502;2023-02-02T00:59:07;34.60;;;4.40;;
18610;SDS011;9435;52.122;5.502;2023-02-02T01:01:34;25.60;;;3.90;;
18610;SDS011;9435;52.122;5.502;2023-02-02T01:04:01;27.33;;;3.83;;
18610;SDS011;9435;52.122;5.502;2023-02-02T01:06:28;24.90;;;4.18;;
18610;SDS011;9435;52.122;5.502;2023-02-02T01:08:55;24.85;;;3.95;;
18610;SDS011;9435;52.122;5.502;2023-02-02T01:11:22;33.25;;;4.35;;
18610;SDS011;9435;52.122;5.502;2023-02-02T01:13:51;26.52;;;4.22;;
18610;SDS011;9435;52.122;5.502;2023-02-02T01:16:18;24.92;;;3.72;;
18610;SDS011;9435;52.122;5.502;2023-02-02T01:18:46;27.25;;;3.58;;
18610;SDS011;9435;52.122;5.502;2023-02-02T01:21:13;27.95;;;4.25;;
18610;SDS011;9435;52.122;5.502;2023-02-02T01:23:40;31.60;;;4.32;;
18610;SDS011;9435;52.122;5.502;2023-02-02T01:26:08;25.60;;;4.18;;
18610;SDS011;9435;52.122;5.502;2023-02-02T01:28:36;26.23;;;4.00;;
18610;SDS011;9435;52.122;5.502;2023-02-02T01:31:06;27.55;;;4.10;;
18610;SDS011;9435;52.122;5.502;2023-02-02T01:33:34;22.60;;;3.38;;
18610;SDS011;9435;52.122;5.502;2023-02-02T01:36:03;24.55;;;3.75;;
18610;SDS011;9435;52.122;5.502;2023-02-02T01:38:31;21.23;;;3.13;;
18610;SDS011;9435;52.122;5.502;2023-02-02T01:40:59;17.52;;;2.58;;
18610;SDS011;9435;52.122;5.502;2023-02-02T01:43:29;13.57;;;2.30;;
18610;SDS011;9435;52.122;5.502;2023-02-02T01:46:18;14.00;;;1.75;;
18610;SDS011;9435;52.122;5.502;2023-02-02T01:48:46;9.25;;;1.42;;
18610;SDS011;9435;52.122;5.502;2023-02-02T01:51:18;9.32;;;1.42;;
18610;SDS011;9435;52.122;5.502;2023-02-02T01:53:48;8.25;;;1.48;;
18610;SDS011;9435;52.122;5.502;2023-02-02T01:56:19;7.97;;;1.40;;
18610;SDS011;9435;52.122;5.502;2023-02-02T01:58:51;9.88;;;1.25;;
18610;SDS011;9435;52.122;5.502;2023-02-02T02:01:20;7.13;;;1.30;;
18610;SDS011;9435;52.122;5.502;2023-02-02T02:03:47;10.05;;;1.52;;
18610;SDS011;9435;52.122;5.502;2023-02-02T02:06:15;9.40;;;1.40;;
18610;SDS011;9435;52.122;5.502;2023-02-02T02:08:46;10.25;;;1.80;;
18610;SDS011;9435;52.122;5.502;2023-02-02T02:11:17;10.60;;;1.40;;
18610;SDS011;9435;52.122;5.502;2023-02-02T02:13:45;11.57;;;1.50;;
18610;SDS011;9435;52.122;5.502;2023-02-02T02:16:32;10.20;;;2.00;;
18610;SDS011;9435;52.122;5.502;2023-02-02T02:19:17;8.65;;;1.63;;
18610;SDS011;9435;52.122;5.502;2023-02-02T02:22:24;12.27;;;2.00;;
18610;SDS011;9435;52.122;5.502;2023-02-02T02:25:30;13.65;;;2.20;;
18610;SDS011;9435;52.122;5.502;2023-02-02T02:28:41;6.68;;;1.85;;
18610;SDS011;9435;52.122;5.502;2023-02-02T02:31:43;14.02;;;2.78;;
18610;SDS011;9435;52.122;5.502;2023-02-02T02:34:23;9.45;;;2.97;;
18610;SDS011;9435;52.122;5.502;2023-02-02T02:36:59;15.70;;;3.80;;
18610;SDS011;9435;52.122;5.502;2023-02-02T02:39:34;18.05;;;3.80;;
18610;SDS011;9435;52.122;5.502;2023-02-02T02:42:06;16.80;;;4.07;;
18610;SDS011;9435;52.122;5.502;2023-02-02T02:44:37;15.27;;;4.20;;
18610;SDS011;9435;52.122;5.502;2023-02-02T02:47:06;20.75;;;4.22;;
18610;SDS011;9435;52.122;5.502;2023-02-02T02:49:40;20.85;;;4.25;;
18610;SDS011;9435;52.122;5.502;2023-02-02T02:52:07;22.92;;;4.32;;
18610;SDS011;9435;52.122;5.502;2023-02-02T02:54:35;24.92;;;4.38;;
18610;SDS011;9435;52.122;5.502;2023-02-02T02:57:12;25.77;;;4.57;;
18610;SDS011;9435;52.122;5.502;2023-02-02T03:00:06;23.10;;;4.22;;
18610;SDS011;9435;52.122;5.502;2023-02-02T03:02:46;18.85;;;3.35;;
18610;SDS011;9435;52.122;5.502;2023-02-02T03:05:22;20.17;;;3.80;;
18610;SDS011;9435;52.122;5.502;2023-02-02T03:08:00;26.13;;;3.85;;
18610;SDS011;9435;52.122;5.502;2023-02-02T03:10:32;31.55;;;4.40;;
18610;SDS011;9435;52.122;5.502;2023-02-02T03:13:03;27.85;;;4.35;;
18610;SDS011;9435;52.122;5.502;2023-02-02T03:15:33;26.70;;;3.78;;
18610;SDS011;9435;52.122;5.502;2023-02-02T03:18:02;27.00;;;4.22;;
18610;SDS011;9435;52.122;5.502;2023-02-02T03:20:29;31.70;;;4.63;;
18610;SDS011;9435;52.122;5.502;2023-02-02T03:22:56;26.65;;;4.32;;
18610;SDS011;9435;52.122;5.502;2023-02-02T03:25:23;24.20;;;3.92;;
18610;SDS011;9435;52.122;5.502;2023-02-02T03:27:50;29.30;;;4.28;;
18610;SDS011;9435;52.122;5.502;2023-02-02T03:30:18;21.60;;;4.07;;
18610;SDS011;9435;52.122;5.502;2023-02-02T03:32:47;27.90;;;4.25;;
18610;SDS011;9435;52.122;5.502;2023-02-02T03:35:17;31.23;;;4.03;;
18610;SDS011;9435;52.122;5.502;2023-02-02T03:37:45;27.08;;;4.20;;
18610;SDS011;9435;52.122;5.502;2023-02-02T03:40:12;23.70;;;4.10;;
18610;SDS011;9435;52.122;5.502;2023-02-02T03:42:39;30.85;;;4.22;;
18610;SDS011;9435;52.122;5.502;2023-02-02T03:45:07;25.00;;;4.50;;
18610;SDS011;9435;52.122;5.502;2023-02-02T03:47:34;23.90;;;3.92;;
18610;SDS011;9435;52.122;5.502;2023-02-02T03:50:01;31.48;;;4.03;;
18610;SDS011;9435;52.122;5.502;2023-02-02T03:52:30;28.48;;;3.88;;
18610;SDS011;9435;52.122;5.502;2023-02-02T03:54:57;23.35;;;3.88;;
18610;SDS011;9435;52.122;5.502;2023-02-02T03:57:25;26.02;;;4.07;;
18610;SDS011;9435;52.122;5.502;2023-02-02T03:59:52;29.55;;;4.20;;
18610;SDS011;9435;52.122;5.502;2023-02-02T04:02:19;29.17;;;4.45;;
18610;SDS011;9435;52.122;5.502;2023-02-02T04:04:46;35.60;;;4.78;;
18610;SDS011;9435;52.122;5.502;2023-02-02T04:07:13;28.88;;;4.15;;
18610;SDS011;9435;52.122;5.502;2023-02-02T04:09:42;24.95;;;4.07;;
18610;SDS011;9435;52.122;5.502;2023-02-02T04:12:09;29.60;;;4.38;;
18610;SDS011;9435;52.122;5.502;2023-02-02T04:14:36;29.02;;;4.28;;
18610;SDS011;9435;52.122;5.502;2023-02-02T04:17:03;26.20;;;4.13;;
18610;SDS011;9435;52.122;5.502;2023-02-02T04:19:30;24.00;;;4.05;;
18610;SDS011;9435;52.122;5.502;2023-02-02T04:21:57;20.73;;;3.70;;
18610;SDS011;9435;52.122;5.502;2023-02-02T04:24:24;23.50;;;3.65;;
18610;SDS011;9435;52.122;5.502;2023-02-02T04:26:52;25.60;;;3.70;;
18610;SDS011;9435;52.122;5.502;2023-02-02T04:29:19;25.95;;;4.15;;
18610;SDS011;9435;52.122;5.502;2023-02-02T04:31:46;28.40;;;4.07;;
18610;SDS011;9435;52.122;5.502;2023-02-02T04:34:13;25.80;;;3.70;;
18610;SDS011;9435;52.122;5.502;2023-02-02T04:36:40;32.47;;;3.83;;
18610;SDS011;9435;52.122;5.502;2023-02-02T04:39:08;22.30;;;3.38;;
18610;SDS011;9435;52.122;5.502;2023-02-02T04:41:36;23.60;;;3.28;;
18610;SDS011;9435;52.122;5.502;2023-02-02T04:44:05;20.90;;;3.53;;
18610;SDS011;9435;52.122;5.502;2023-02-02T04:46:39;28.08;;;3.90;;
18610;SDS011;9435;52.122;5.502;2023-02-02T04:49:07;19.70;;;3.25;;
18610;SDS011;9435;52.122;5.502;2023-02-02T04:51:34;19.48;;;3.38;;
18610;SDS011;9435;52.122;5.502;2023-02-02T04:54:01;23.33;;;3.47;;
18610;SDS011;9435;52.122;5.502;2023-02-02T04:56:29;20.63;;;3.55;;
18610;SDS011;9435;52.122;5.502;2023-02-02T04:58:56;20.15;;;3.28;;
18610;SDS011;9435;52.122;5.502;2023-02-02T05:01:24;24.55;;;3.40;;
18610;SDS011;9435;52.122;5.502;2023-02-02T05:03:51;28.38;;;3.40;;
18610;SDS011;9435;52.122;5.502;2023-02-02T05:06:19;26.30;;;3.63;;
18610;SDS011;9435;52.122;5.502;2023-02-02T05:08:46;25.38;;;3.70;;
18610;SDS011;9435;52.122;5.502;2023-02-02T05:11:14;26.27;;;3.63;;
18610;SDS011;9435;52.122;5.502;2023-02-02T05:13:44;24.67;;;3.80;;
18610;SDS011;9435;52.122;5.502;2023-02-02T05:16:12;22.67;;;4.15;;
18610;SDS011;9435;52.122;5.502;2023-02-02T05:18:41;19.88;;;3.70;;
18610;SDS011;9435;52.122;5.502;2023-02-02T05:21:08;20.92;;;3.75;;
18610;SDS011;9435;52.122;5.502;2023-02-02T05:23:35;18.73;;;3.65;;
18610;SDS011;9435;52.122;5.502;2023-02-02T05:26:03;30.75;;;4.53;;
18610;SDS011;9435;52.122;5.502;2023-02-02T05:28:30;23.08;;;4.45;;
18610;SDS011;9435;52.122;5.502;2023-02-02T05:31:01;21.40;;;4.35;;
18610;SDS011;9435;52.122;5.502;2023-02-02T05:33:31;24.92;;;4.20;;
18610;SDS011;9435;52.122;5.502;2023-02-02T05:35:59;21.42;;;3.67;;
18610;SDS011;9435;52.122;5.502;2023-02-02T05:38:26;24.15;;;4.00;;
18610;SDS011;9435;52.122;5.502;2023-02-02T05:40:53;22.20;;;4.10;;
18610;SDS011;9435;52.122;5.502;2023-02-02T05:43:23;21.90;;;3.78;;
18610;SDS011;9435;52.122;5.502;2023-02-02T05:45:50;16.77;;;3.38;;
18610;SDS011;9435;52.122;5.502;2023-02-02T05:48:17;22.48;;;4.30;;
18610;SDS011;9435;52.122;5.502;2023-02-02T05:50:45;21.05;;;3.90;;
18610;SDS011;9435;52.122;5.502;2023-02-02T05:53:21;22.63;;;3.90;;
18610;SDS011;9435;52.122;5.502;2023-02-02T05:55:48;17.05;;;3.53;;
18610;SDS011;9435;52.122;5.502;2023-02-02T05:58:15;24.20;;;3.50;;
18610;SDS011;9435;52.122;5.502;2023-02-02T06:00:42;22.73;;;3.67;;
18610;SDS011;9435;52.122;5.502;2023-02-02T06:03:09;20.10;;;3.53;;
18610;SDS011;9435;52.122;5.502;2023-02-02T06:05:37;17.63;;;3.22;;
18610;SDS011;9435;52.122;5.502;2023-02-02T06:08:05;27.90;;;3.95;;
18610;SDS011;9435;52.122;5.502;2023-02-02T06:10:33;26.83;;;3.80;;
18610;SDS011;9435;52.122;5.502;2023-02-02T06:13:00;24.42;;;3.67;;
18610;SDS011;9435;52.122;5.502;2023-02-02T06:15:27;19.10;;;3.35;;
18610;SDS011;9435;52.122;5.502;2023-02-02T06:17:55;21.27;;;4.00;;
18610;SDS011;9435;52.122;5.502;2023-02-02T06:20:23;18.40;;;3.28;;
18610;SDS011;9435;52.122;5.502;2023-02-02T06:22:50;19.63;;;3.25;;
18610;SDS011;9435;52.122;5.502;2023-02-02T06:25:17;22.83;;;3.72;;
18610;SDS011;9435;52.122;5.502;2023-02-02T06:27:45;16.90;;;3.13;;
18610;SDS011;9435;52.122;5.502;2023-02-02T06:30:13;26.83;;;3.83;;
18610;SDS011;9435;52.122;5.502;2023-02-02T06:32:41;22.15;;;3.30;;
18610;SDS011;9435;52.122;5.502;2023-02-02T06:35:08;27.02;;;3.75;;
18610;SDS011;9435;52.122;5.502;2023-02-02T06:37:35;21.38;;;3.60;;
18610;SDS011;9435;52.122;5.502;2023-02-02T06:40:04;19.60;;;3.25;;
18610;SDS011;9435;52.122;5.502;2023-02-02T06:42:32;18.60;;;3.45;;
18610;SDS011;9435;52.122;5.502;2023-02-02T06:45:01;20.25;;;3.40;;
18610;SDS011;9435;52.122;5.502;2023-02-02T06:47:28;17.38;;;3.67;;
18610;SDS011;9435;52.122;5.502;2023-02-02T06:49:57;20.52;;;3.40;;
18610;SDS011;9435;52.122;5.502;2023-02-02T06:52:25;22.63;;;4.00;;
18610;SDS011;9435;52.122;5.502;2023-02-02T06:54:52;23.73;;;4.22;;
18610;SDS011;9435;52.122;5.502;2023-02-02T06:57:19;18.92;;;3.47;;
18610;SDS011;9435;52.122;5.502;2023-02-02T06:59:46;19.52;;;3.80;;
18610;SDS011;9435;52.122;5.502;2023-02-02T07:02:16;24.15;;;3.88;;
18610;SDS011;9435;52.122;5.502;2023-02-02T07:04:43;29.92;;;4.50;;
18610;SDS011;9435;52.122;5.502;2023-02-02T07:07:10;24.48;;;3.95;;
18610;SDS011;9435;52.122;5.502;2023-02-02T07:09:37;23.17;;;4.50;;
18610;SDS011;9435;52.122;5.502;2023-02-02T07:12:04;25.10;;;3.97;;
18610;SDS011;9435;52.122;5.502;2023-02-02T07:14:31;17.98;;;3.95;;
18610;SDS011;9435;52.122;5.502;2023-02-02T07:16:58;26.17;;;4.20;;
18610;SDS011;9435;52.122;5.502;2023-02-02T07:19:27;22.70;;;4.72;;
18610;SDS011;9435;52.122;5.502;2023-02-02T07:21:54;22.13;;;4.10;;
18610;SDS011;9435;52.122;5.502;2023-02-02T07:24:21;21.45;;;4.25;;
18610;SDS011;9435;52.122;5.502;2023-02-02T07:26:48;27.77;;;5.13;;
18610;SDS011;9435;52.122;5.502;2023-02-02T07:29:15;25.27;;;4.50;;
18610;SDS011;9435;52.122;5.502;2023-02-02T07:31:42;24.20;;;4.43;;
18610;SDS011;9435;52.122;5.502;2023-02-02T07:34:10;25.83;;;4.90;;
18610;SDS011;9435;52.122;5.502;2023-02-02T07:36:38;22.02;;;4.63;;
18610;SDS011;9435;52.122;5.502;2023-02-02T07:39:05;20.27;;;4.78;;
18610;SDS011;9435;52.122;5.502;2023-02-02T07:41:33;24.17;;;4.75;;
18610;SDS011;9435;52.122;5.502;2023-02-02T07:44:01;31.67;;;5.10;;
18610;SDS011;9435;52.122;5.502;2023-02-02T07:46:29;29.38;;;5.15;;
18610;SDS011;9435;52.122;5.502;2023-02-02T07:48:56;24.83;;;4.80;;
18610;SDS011;9435;52.122;5.502;2023-02-02T07:51:23;17.42;;;4.55;;
18610;SDS011;9435;52.122;5.502;2023-02-02T07:53:53;22.15;;;4.45;;
18610;SDS011;9435;52.122;5.502;2023-02-02T07:56:23;28.77;;;5.00;;
18610;SDS011;9435;52.122;5.502;2023-02-02T07:58:53;24.85;;;4.72;;
18610;SDS011;9435;52.122;5.502;2023-02-02T08:01:21;24.65;;;4.50;;
18610;SDS011;9435;52.122;5.502;2023-02-02T08:03:50;28.90;;;4.70;;
18610;SDS011;9435;52.122;5.502;2023-02-02T08:06:19;25.80;;;4.63;;
18610;SDS011;9435;52.122;5.502;2023-02-02T08:08:48;28.85;;;4.30;;
18610;SDS011;9435;52.122;5.502;2023-02-02T08:11:18;19.77;;;4.20;;
18610;SDS011;9435;52.122;5.502;2023-02-02T08:13:47;23.80;;;4.22;;
18610;SDS011;9435;52.122;5.502;2023-02-02T08:16:15;22.92;;;4.30;;
18610;SDS011;9435;52.122;5.502;2023-02-02T08:18:43;20.60;;;4.30;;
18610;SDS011;9435;52.122;5.502;2023-02-02T08:21:10;26.45;;;4.25;;
18610;SDS011;9435;52.122;5.502;2023-02-02T08:23:38;28.05;;;3.45;;
18610;SDS011;9435;52.122;5.502;2023-02-02T08:26:08;20.45;;;3.97;;
18610;SDS011;9435;52.122;5.502;2023-02-02T08:28:37;25.75;;;3.88;;
18610;SDS011;9435;52.122;5.502;2023-02-02T08:31:06;19.05;;;3.72;;
18610;SDS011;9435;52.122;5.502;2023-02-02T08:33:34;24.35;;;3.70;;
18610;SDS011;9435;52.122;5.502;2023-02-02T08:36:02;16.25;;;3.47;;
18610;SDS011;9435;52.122;5.502;2023-02-02T08:38:30;20.65;;;3.97;;
18610;SDS011;9435;52.122;5.502;2023-02-02T08:41:02;22.95;;;3.72;;
18610;SDS011;9435;52.122;5.502;2023-02-02T08:43:30;25.38;;;3.70;;
18610;SDS011;9435;52.122;5.502;2023-02-02T08:45:59;21.05;;;3.85;;
18610;SDS011;9435;52.122;5.502;2023-02-02T08:48:26;21.08;;;3.78;;
18610;SDS011;9435;52.122;5.502;2023-02-02T08:50:53;21.50;;;3.25;;
18610;SDS011;9435;52.122;5.502;2023-02-02T08:53:21;25.48;;;3.53;;
18610;SDS011;9435;52.122;5.502;2023-02-02T08:55:50;21.38;;;3.65;;
18610;SDS011;9435;52.122;5.502;2023-02-02T08:58:23;21.65;;;3.45;;
18610;SDS011;9435;52.122;5.502;2023-02-02T09:00:50;22.65;;;3.53;;
18610;SDS011;9435;52.122;5.502;2023-02-02T09:03:19;24.45;;;3.58;;
18610;SDS011;9435;52.122;5.502;2023-02-02T09:05:46;21.95;;;3.67;;
18610;SDS011;9435;52.122;5.502;2023-02-02T09:08:13;18.55;;;3.20;;
18610;SDS011;9435;52.122;5.502;2023-02-02T09:10:40;27.60;;;3.58;;
18610;SDS011;9435;52.122;5.502;2023-02-02T09:13:07;17.80;;;3.33;;
18610;SDS011;9435;52.122;5.502;2023-02-02T09:15:34;22.50;;;3.47;;
18610;SDS011;9435;52.122;5.502;2023-02-02T09:18:01;24.42;;;3.45;;
18610;SDS011;9435;52.122;5.502;2023-02-02T09:20:29;15.48;;;3.10;;
18610;SDS011;9435;52.122;5.502;2023-02-02T09:22:56;13.70;;;2.85;;
18610;SDS011;9435;52.122;5.502;2023-02-02T09:25:23;23.15;;;3.70;;
18610;SDS011;9435;52.122;5.502;2023-02-02T09:27:51;24.38;;;3.38;;
18610;SDS011;9435;52.122;5.502;2023-02-02T09:30:18;17.27;;;3.03;;
18610;SDS011;9435;52.122;5.502;2023-02-02T09:32:47;21.00;;;3.13;;
18610;SDS011;9435;52.122;5.502;2023-02-02T09:35:15;15.57;;;3.05;;
18610;SDS011;9435;52.122;5.502;2023-02-02T09:37:44;20.85;;;3.45;;
18610;SDS011;9435;52.122;5.502;2023-02-02T09:40:13;24.58;;;3.30;;
18610;SDS011;9435;52.122;5.502;2023-02-02T09:42:46;25.20;;;3.75;;
18610;SDS011;9435;52.122;5.502;2023-02-02T09:45:22;17.15;;;3.45;;
18610;SDS011;9435;52.122;5.502;2023-02-02T09:47:54;20.95;;;3.30;;
18610;SDS011;9435;52.122;5.502;2023-02-02T09:50:39;16.98;;;3.50;;
18610;SDS011;9435;52.122;5.502;2023-02-02T09:53:12;20.50;;;3.30;;
18610;SDS011;9435;52.122;5.502;2023-02-02T09:55:47;18.00;;;3.00;;
18610;SDS011;9435;52.122;5.502;2023-02-02T09:58:18;23.15;;;3.45;;
18610;SDS011;9435;52.122;5.502;2023-02-02T10:00:50;16.73;;;3.08;;
18610;SDS011;9435;52.122;5.502;2023-02-02T10:03:23;19.05;;;3.55;;
18610;SDS011;9435;52.122;5.502;2023-02-02T10:05:57;20.73;;;3.17;;
18610;SDS011;9435;52.122;5.502;2023-02-02T10:08:32;21.40;;;3.50;;
18610;SDS011;9435;52.122;5.502;2023-02-02T10:11:03;26.75;;;3.88;;
18610;SDS011;9435;52.122;5.502;2023-02-02T10:13:43;22.17;;;3.30;;
18610;SDS011;9435;52.122;5.502;2023-02-02T10:16:13;20.95;;;3.65;;
18610;SDS011;9435;52.122;5.502;2023-02-02T10:18:44;18.92;;;3.28;;
18610;SDS011;9435;52.122;5.502;2023-02-02T10:21:16;18.30;;;3.85;;
18610;SDS011;9435;52.122;5.502;2023-02-02T10:23:52;20.02;;;3.40;;
18610;SDS011;9435;52.122;5.502;2023-02-02T10:26:21;20.02;;;3.65;;
18610;SDS011;9435;52.122;5.502;2023-02-02T10:29:00;21.05;;;3.60;;
18610;SDS011;9435;52.122;5.502;2023-02-02T10:31:37;20.55;;;3.53;;
18610;SDS011;9435;52.122;5.502;2023-02-02T10:34:20;18.10;;;3.78;;
18610;SDS011;9435;52.122;5.502;2023-02-02T10:39:59;19.85;;;3.58;;
18610;SDS011;9435;52.122;5.502;2023-02-02T10:42:38;18.63;;;3.78;;
18610;SDS011;9435;52.122;5.502;2023-02-02T10:45:31;15.85;;;3.60;;
18610;SDS011;9435;52.122;5.502;2023-02-02T10:47:59;18.40;;;3.35;;
18610;SDS011;9435;52.122;5.502;2023-02-02T10:50:26;17.48;;;3.55;;
18610;SDS011;9435;52.122;5.502;2023-02-02T10:52:53;21.48;;;3.78;;
18610;SDS011;9435;52.122;5.502;2023-02-02T10:55:27;20.52;;;3.28;;
18610;SDS011;9435;52.122;5.502;2023-02-02T10:58:05;18.55;;;3.42;;
18610;SDS011;9435;52.122;5.502;2023-02-02T11:00:45;24.67;;;3.58;;
18610;SDS011;9435;52.122;5.502;2023-02-02T11:03:16;20.60;;;3.15;;
18610;SDS011;9435;52.122;5.502;2023-02-02T11:05:45;20.85;;;3.80;;
18610;SDS011;9435;52.122;5.502;2023-02-02T11:08:27;13.23;;;3.25;;
18610;SDS011;9435;52.122;5.502;2023-02-02T11:11:03;17.30;;;3.60;;
18610;SDS011;9435;52.122;5.502;2023-02-02T11:13:38;20.15;;;3.70;;
18610;SDS011;9435;52.122;5.502;2023-02-02T11:16:22;21.67;;;4.20;;
18610;SDS011;9435;52.122;5.502;2023-02-02T11:18:53;22.75;;;3.80;;
18610;SDS011;9435;52.122;5.502;2023-02-02T11:21:21;20.17;;;3.40;;
18610;SDS011;9435;52.122;5.502;2023-02-02T11:23:52;20.20;;;3.17;;
18610;SDS011;9435;52.122;5.502;2023-02-02T11:26:22;24.08;;;3.53;;
18610;SDS011;9435;52.122;5.502;2023-02-02T11:29:03;18.80;;;3.15;;
18610;SDS011;9435;52.122;5.502;2023-02-02T11:31:34;21.75;;;3.97;;
18610;SDS011;9435;52.122;5.502;2023-02-02T11:34:13;17.23;;;3.40;;
18610;SDS011;9435;52.122;5.502;2023-02-02T11:39:41;18.02;;;3.22;;
18610;SDS011;9435;52.122;5.502;2023-02-02T11:42:13;21.88;;;2.80;;
18610;SDS011;9435;52.122;5.502;2023-02-02T11:44:43;17.70;;;3.22;;
18610;SDS011;9435;52.122;5.502;2023-02-02T11:47:17;17.17;;;3.00;;
18610;SDS011;9435;52.122;5.502;2023-02-02T11:49:46;19.08;;;2.83;;
18610;SDS011;9435;52.122;5.502;2023-02-02T11:52:17;16.00;;;2.70;;
18610;SDS011;9435;52.122;5.502;2023-02-02T11:54:47;17.45;;;3.10;;
18610;SDS011;9435;52.122;5.502;2023-02-02T11:57:18;18.35;;;2.92;;
18610;SDS011;9435;52.122;5.502;2023-02-02T11:59:47;14.45;;;2.72;;
18610;SDS011;9435;52.122;5.502;2023-02-02T12:02:23;22.38;;;3.05;;
18610;SDS011;9435;52.122;5.502;2023-02-02T12:04:53;15.52;;;2.75;;
18610;SDS011;9435;52.122;5.502;2023-02-02T12:07:23;16.40;;;2.70;;
18610;SDS011;9435;52.122;5.502;2023-02-02T12:09:53;21.33;;;2.78;;
18610;SDS011;9435;52.122;5.502;2023-02-02T12:12:28;19.98;;;2.70;;
18610;SDS011;9435;52.122;5.502;2023-02-02T12:15:07;17.08;;;3.03;;
18610;SDS011;9435;52.122;5.502;2023-02-02T12:17:47;14.20;;;2.55;;
18610;SDS011;9435;52.122;5.502;2023-02-02T12:20:25;18.80;;;2.90;;
18610;SDS011;9435;52.122;5.502;2023-02-02T12:23:07;19.23;;;2.95;;
18610;SDS011;9435;52.122;5.502;2023-02-02T12:25:52;18.10;;;2.95;;
18610;SDS011;9435;52.122;5.502;2023-02-02T12:28:44;17.42;;;2.85;;
18610;SDS011;9435;52.122;5.502;2023-02-02T12:31:25;21.27;;;2.78;;
18610;SDS011;9435;52.122;5.502;2023-02-02T12:34:03;22.30;;;2.60;;
18610;SDS011;9435;52.122;5.502;2023-02-02T12:36:40;17.90;;;2.45;;
18610;SDS011;9435;52.122;5.502;2023-02-02T12:39:18;17.08;;;2.63;;
18610;SDS011;9435;52.122;5.502;2023-02-02T12:44:51;15.45;;;2.50;;
18610;SDS011;9435;52.122;5.502;2023-02-02T12:47:29;17.27;;;2.50;;
18610;SDS011;9435;52.122;5.502;2023-02-02T12:50:09;19.02;;;2.42;;
18610;SDS011;9435;52.122;5.502;2023-02-02T12:52:54;16.00;;;2.10;;
18610;SDS011;9435;52.122;5.502;2023-02-02T12:55:37;13.30;;;2.47;;
18610;SDS011;9435;52.122;5.502;2023-02-02T12:58:11;15.55;;;2.50;;
18610;SDS011;9435;52.122;5.502;2023-02-02T13:03:53;14.27;;;2.58;;
18610;SDS011;9435;52.122;5.502;2023-02-02T13:06:43;16.83;;;2.75;;
18610;SDS011;9435;52.122;5.502;2023-02-02T13:09:27;17.48;;;2.58;;
18610;SDS011;9435;52.122;5.502;2023-02-02T13:12:00;14.98;;;2.80;;
18610;SDS011;9435;52.122;5.502;2023-02-02T13:14:33;17.50;;;2.75;;
18610;SDS011;9435;52.122;5.502;2023-02-02T13:17:06;14.27;;;2.30;;
18610;SDS011;9435;52.122;5.502;2023-02-02T13:19:38;12.63;;;2.38;;
18610;SDS011;9435;52.122;5.502;2023-02-02T13:22:09;15.15;;;2.80;;
18610;SDS011;9435;52.122;5.502;2023-02-02T13:24:41;17.70;;;2.80;;
18610;SDS011;9435;52.122;5.502;2023-02-02T13:27:11;14.60;;;2.65;;
18610;SDS011;9435;52.122;5.502;2023-02-02T13:29:44;15.30;;;2.88;;
18610;SDS011;9435;52.122;5.502;2023-02-02T13:32:20;17.83;;;2.92;;
18610;SDS011;9435;52.122;5.502;2023-02-02T13:34:54;15.73;;;3.13;;
18610;SDS011;9435;52.122;5.502;2023-02-02T13:37:27;19.55;;;3.38;;
18610;SDS011;9435;52.122;5.502;2023-02-02T13:40:03;21.52;;;3.03;;
18610;SDS011;9435;52.122;5.502;2023-02-02T13:42:41;17.30;;;2.97;;
18610;SDS011;9435;52.122;5.502;2023-02-02T13:45:30;18.38;;;3.17;;
18610;SDS011;9435;52.122;5.502;2023-02-02T13:48:09;18.42;;;3.75;;
18610;SDS011;9435;52.122;5.502;2023-02-02T13:50:48;18.35;;;3.53;;
18610;SDS011;9435;52.122;5.502;2023-02-02T13:53:33;16.90;;;3.88;;
18610;SDS011;9435;52.122;5.502;2023-02-02T13:56:17;16.73;;;3.88;;
18610;SDS011;9435;52.122;5.502;2023-02-02T13:59:03;22.55;;;3.70;;
18610;SDS011;9435;52.122;5.502;2023-02-02T14:01:44;19.48;;;3.47;;
18610;SDS011;9435;52.122;5.502;2023-02-02T14:04:20;17.33;;;3.35;;
18610;SDS011;9435;52.122;5.502;2023-02-02T14:06:56;15.50;;;3.10;;
18610;SDS011;9435;52.122;5.502;2023-02-02T14:09:25;14.85;;;3.28;;
18610;SDS011;9435;52.122;5.502;2023-02-02T14:11:56;9.75;;;2.90;;
18610;SDS011;9435;52.122;5.502;2023-02-02T14:14:26;13.60;;;2.50;;
18610;SDS011;9435;52.122;5.502;2023-02-02T14:16:57;10.05;;;2.50;;
18610;SDS011;9435;52.122;5.502;2023-02-02T14:22:17;6.13;;;2.03;;
18610;SDS011;9435;52.122;5.502;2023-02-02T14:24:46;8.43;;;2.33;;
18610;SDS011;9435;52.122;5.502;2023-02-02T14:30:21;9.32;;;2.10;;
18610;SDS011;9435;52.122;5.502;2023-02-02T14:32:53;11.77;;;2.38;;
18610;SDS011;9435;52.122;5.502;2023-02-02T14:35:59;6.30;;;2.00;;
18610;SDS011;9435;52.122;5.502;2023-02-02T14:41:25;5.72;;;2.03;;
18610;SDS011;9435;52.122;5.502;2023-02-02T14:44:31;7.65;;;2.40;;
18610;SDS011;9435;52.122;5.502;2023-02-02T14:47:01;5.18;;;2.05;;
18610;SDS011;9435;52.122;5.502;2023-02-02T14:49:31;3.85;;;1.70;;
18610;SDS011;9435;52.122;5.502;2023-02-02T14:52:02;10.52;;;2.20;;
18610;SDS011;9435;52.122;5.502;2023-02-02T14:54:30;4.43;;;1.98;;
18610;SDS011;9435;52.122;5.502;2023-02-02T14:57:02;3.33;;;1.70;;
18610;SDS011;9435;52.122;5.502;2023-02-02T14:59:32;4.68;;;2.00;;
18610;SDS011;9435;52.122;5.502;2023-02-02T15:02:05;3.75;;;1.63;;
18610;SDS011;9435;52.122;5.502;2023-02-02T15:04:40;3.58;;;2.08;;
18610;SDS011;9435;52.122;5.502;2023-02-02T15:13:23;5.05;;;2.28;;
18610;SDS011;9435;52.122;5.502;2023-02-02T15:16:00;7.25;;;2.70;;
18610;SDS011;9435;52.122;5.502;2023-02-02T15:18:32;5.00;;;2.75;;
18610;SDS011;9435;52.122;5.502;2023-02-02T15:21:08;6.50;;;3.25;;
18610;SDS011;9435;52.122;5.502;2023-02-02T15:23:43;9.48;;;3.60;;
18610;SDS011;9435;52.122;5.502;2023-02-02T15:26:12;8.77;;;3.95;;
18610;SDS011;9435;52.122;5.502;2023-02-02T15:28:45;8.95;;;3.95;;
18610;SDS011;9435;52.122;5.502;2023-02-02T15:31:18;8.77;;;4.30;;
18610;SDS011;9435;52.122;5.502;2023-02-02T15:33:54;9.63;;;4.75;;
18610;SDS011;9435;52.122;5.502;2023-02-02T15:36:24;12.02;;;4.97;;
18610;SDS011;9435;52.122;5.502;2023-02-02T15:38:55;12.23;;;5.15;;
18610;SDS011;9435;52.122;5.502;2023-02-02T15:41:25;12.93;;;5.90;;